sensor_id;sensor_type;location;lat;lon;timestamp;P1;durP1;ratioP1;P2;durP2;ratioP2
52494;SDS011;38405;53.212;5.660;2022-12-10T00:01:13;212.75;;;40.50;;
52494;SDS011;38405;53.212;5.660;2022-12-10T00:03:40;181.18;;;39.67;;
52494;SDS011;38405;53.212;5.660;2022-12-10T00:06:07;216.82;;;45.00;;
52494;SDS011;38405;53.212;5.660;2022-12-10T00:08:34;196.07;;;41.17;;
52494;SDS011;38405;53.212;5.660;2022-12-10T00:11:02;206.73;;;43.83;;
52494;SDS011;38405;53.212;5.660;2022-12-10T00:13:28;221.10;;;44.78;;
52494;SDS011;38405;53.212;5.660;2022-12-10T00:15:54;197.60;;;43.53;;
52494;SDS011;38405;53.212;5.660;2022-12-10T00:18:20;177.02;;;42.45;;
52494;SDS011;38405;53.212;5.660;2022-12-10T00:20:45;169.60;;;42.47;;
52494;SDS011;38405;53.212;5.660;2022-12-10T00:23:11;151.05;;;38.50;;
52494;SDS011;38405;53.212;5.660;2022-12-10T00:25:36;180.65;;;40.80;;
52494;SDS011;38405;53.212;5.660;2022-12-10T00:28:02;186.45;;;41.08;;
52494;SDS011;38405;53.212;5.660;2022-12-10T00:30:28;166.15;;;40.33;;
52494;SDS011;38405;53.212;5.660;2022-12-10T00:32:54;165.85;;;40.47;;
52494;SDS011;38405;53.212;5.660;2022-12-10T00:35:19;155.07;;;39.05;;
52494;SDS011;38405;53.212;5.660;2022-12-10T00:37:45;143.85;;;39.35;;
52494;SDS011;38405;53.212;5.660;2022-12-10T00:40:11;134.70;;;39.08;;
52494;SDS011;38405;53.212;5.660;2022-12-10T00:42:36;155.07;;;38.70;;
52494;SDS011;38405;53.212;5.660;2022-12-10T00:45:03;143.02;;;38.60;;
52494;SDS011;38405;53.212;5.660;2022-12-10T00:47:29;133.68;;;38.00;;
52494;SDS011;38405;53.212;5.660;2022-12-10T00:49:55;137.32;;;37.83;;
52494;SDS011;38405;53.212;5.660;2022-12-10T00:52:21;122.38;;;36.58;;
52494;SDS011;38405;53.212;5.660;2022-12-10T00:54:46;129.68;;;38.60;;
52494;SDS011;38405;53.212;5.660;2022-12-10T00:57:12;142.73;;;39.20;;
52494;SDS011;38405;53.212;5.660;2022-12-10T00:59:37;136.20;;;38.40;;
52494;SDS011;38405;53.212;5.660;2022-12-10T01:02:03;139.85;;;40.03;;
52494;SDS011;38405;53.212;5.660;2022-12-10T01:04:29;125.65;;;38.58;;
52494;SDS011;38405;53.212;5.660;2022-12-10T01:06:54;140.00;;;38.75;;
52494;SDS011;38405;53.212;5.660;2022-12-10T01:09:24;137.85;;;39.97;;
52494;SDS011;38405;53.212;5.660;2022-12-10T01:11:52;137.95;;;37.97;;
52494;SDS011;38405;53.212;5.660;2022-12-10T01:14:20;136.77;;;39.60;;
52494;SDS011;38405;53.212;5.660;2022-12-10T01:16:48;112.82;;;36.30;;
52494;SDS011;38405;53.212;5.660;2022-12-10T01:19:14;108.05;;;35.20;;
52494;SDS011;38405;53.212;5.660;2022-12-10T01:21:40;120.18;;;37.60;;
52494;SDS011;38405;53.212;5.660;2022-12-10T01:24:06;124.93;;;38.03;;
52494;SDS011;38405;53.212;5.660;2022-12-10T01:26:32;124.32;;;38.78;;
52494;SDS011;38405;53.212;5.660;2022-12-10T01:28:59;131.48;;;38.80;;
52494;SDS011;38405;53.212;5.660;2022-12-10T01:31:27;119.22;;;37.47;;
52494;SDS011;38405;53.212;5.660;2022-12-10T01:33:58;120.63;;;37.70;;
52494;SDS011;38405;53.212;5.660;2022-12-10T01:36:28;133.73;;;37.80;;
52494;SDS011;38405;53.212;5.660;2022-12-10T01:38:58;121.75;;;37.65;;
52494;SDS011;38405;53.212;5.660;2022-12-10T01:41:27;120.22;;;36.92;;
52494;SDS011;38405;53.212;5.660;2022-12-10T01:44:03;119.78;;;37.45;;
52494;SDS011;38405;53.212;5.660;2022-12-10T01:46:51;136.95;;;37.88;;
52494;SDS011;38405;53.212;5.660;2022-12-10T01:49:22;124.72;;;39.38;;
52494;SDS011;38405;53.212;5.660;2022-12-10T01:51:51;126.97;;;38.05;;
52494;SDS011;38405;53.212;5.660;2022-12-10T01:54:21;133.57;;;38.47;;
52494;SDS011;38405;53.212;5.660;2022-12-10T01:57:02;129.35;;;37.20;;
52494;SDS011;38405;53.212;5.660;2022-12-10T01:59:29;144.65;;;39.97;;
52494;SDS011;38405;53.212;5.660;2022-12-10T02:10:20;156.52;;;40.60;;
52494;SDS011;38405;53.212;5.660;2022-12-10T02:13:11;135.10;;;38.63;;
52494;SDS011;38405;53.212;5.660;2022-12-10T02:16:11;141.60;;;40.85;;
52494;SDS011;38405;53.212;5.660;2022-12-10T02:21:06;144.68;;;40.25;;
52494;SDS011;38405;53.212;5.660;2022-12-10T02:23:42;146.48;;;40.08;;
52494;SDS011;38405;53.212;5.660;2022-12-10T02:26:49;160.75;;;42.13;;
52494;SDS011;38405;53.212;5.660;2022-12-10T02:29:16;162.73;;;42.13;;
52494;SDS011;38405;53.212;5.660;2022-12-10T02:31:47;163.48;;;43.10;;
52494;SDS011;38405;53.212;5.660;2022-12-10T02:34:16;185.10;;;41.95;;
52494;SDS011;38405;53.212;5.660;2022-12-10T02:36:46;205.75;;;43.95;;
52494;SDS011;38405;53.212;5.660;2022-12-10T02:39:16;210.27;;;41.28;;
52494;SDS011;38405;53.212;5.660;2022-12-10T02:41:52;243.95;;;44.17;;
52494;SDS011;38405;53.212;5.660;2022-12-10T02:44:19;230.02;;;42.88;;
52494;SDS011;38405;53.212;5.660;2022-12-10T02:46:47;222.30;;;43.47;;
52494;SDS011;38405;53.212;5.660;2022-12-10T02:49:14;197.95;;;41.45;;
52494;SDS011;38405;53.212;5.660;2022-12-10T02:51:42;214.63;;;41.72;;
52494;SDS011;38405;53.212;5.660;2022-12-10T02:54:33;178.90;;;40.60;;
52494;SDS011;38405;53.212;5.660;2022-12-10T02:57:05;179.55;;;41.30;;
52494;SDS011;38405;53.212;5.660;2022-12-10T03:02:34;156.57;;;40.58;;
52494;SDS011;38405;53.212;5.660;2022-12-10T03:05:10;173.95;;;39.63;;
52494;SDS011;38405;53.212;5.660;2022-12-10T03:08:09;163.15;;;39.80;;
52494;SDS011;38405;53.212;5.660;2022-12-10T03:10:53;338.02;;;42.00;;
52494;SDS011;38405;53.212;5.660;2022-12-10T03:16:18;611.95;;;46.50;;
52494;SDS011;38405;53.212;5.660;2022-12-10T03:18:44;617.47;;;45.38;;
52494;SDS011;38405;53.212;5.660;2022-12-10T03:21:14;616.50;;;44.38;;
52494;SDS011;38405;53.212;5.660;2022-12-10T03:23:42;692.65;;;46.65;;
52494;SDS011;38405;53.212;5.660;2022-12-10T03:26:11;625.80;;;45.10;;
52494;SDS011;38405;53.212;5.660;2022-12-10T03:28:38;636.78;;;44.30;;
52494;SDS011;38405;53.212;5.660;2022-12-10T03:31:09;607.88;;;41.97;;
52494;SDS011;38405;53.212;5.660;2022-12-10T03:33:37;603.45;;;43.53;;
52494;SDS011;38405;53.212;5.660;2022-12-10T03:36:04;625.88;;;43.42;;
52494;SDS011;38405;53.212;5.660;2022-12-10T03:38:32;672.42;;;45.25;;
52494;SDS011;38405;53.212;5.660;2022-12-10T03:40:58;637.33;;;40.90;;
52494;SDS011;38405;53.212;5.660;2022-12-10T03:43:24;671.83;;;46.28;;
52494;SDS011;38405;53.212;5.660;2022-12-10T03:45:49;622.85;;;42.83;;
52494;SDS011;38405;53.212;5.660;2022-12-10T03:48:15;612.92;;;39.50;;
52494;SDS011;38405;53.212;5.660;2022-12-10T03:50:41;583.78;;;37.20;;
52494;SDS011;38405;53.212;5.660;2022-12-10T03:53:06;641.90;;;40.60;;
52494;SDS011;38405;53.212;5.660;2022-12-10T03:55:32;623.83;;;39.22;;
52494;SDS011;38405;53.212;5.660;2022-12-10T03:57:58;676.17;;;40.67;;
52494;SDS011;38405;53.212;5.660;2022-12-10T04:00:24;653.95;;;41.70;;
52494;SDS011;38405;53.212;5.660;2022-12-10T04:02:49;693.53;;;41.78;;
52494;SDS011;38405;53.212;5.660;2022-12-10T04:05:15;773.45;;;45.25;;
52494;SDS011;38405;53.212;5.660;2022-12-10T04:07:41;733.65;;;44.17;;
52494;SDS011;38405;53.212;5.660;2022-12-10T04:10:06;717.03;;;45.05;;
52494;SDS011;38405;53.212;5.660;2022-12-10T04:12:33;649.33;;;42.83;;
52494;SDS011;38405;53.212;5.660;2022-12-10T04:14:59;771.97;;;46.72;;
52494;SDS011;38405;53.212;5.660;2022-12-10T04:17:43;832.08;;;47.95;;
52494;SDS011;38405;53.212;5.660;2022-12-10T04:20:09;664.22;;;41.72;;
52494;SDS011;38405;53.212;5.660;2022-12-10T04:22:55;726.38;;;43.42;;
52494;SDS011;38405;53.212;5.660;2022-12-10T04:25:39;714.97;;;42.95;;
52494;SDS011;38405;53.212;5.660;2022-12-10T04:28:23;705.40;;;41.25;;
52494;SDS011;38405;53.212;5.660;2022-12-10T04:30:49;676.88;;;39.50;;
52494;SDS011;38405;53.212;5.660;2022-12-10T04:33:14;686.38;;;40.08;;
52494;SDS011;38405;53.212;5.660;2022-12-10T04:35:40;575.88;;;34.95;;
52494;SDS011;38405;53.212;5.660;2022-12-10T04:38:06;598.95;;;34.63;;
52494;SDS011;38405;53.212;5.660;2022-12-10T04:40:31;657.05;;;38.78;;
52494;SDS011;38405;53.212;5.660;2022-12-10T04:42:57;561.80;;;35.78;;
52494;SDS011;38405;53.212;5.660;2022-12-10T04:45:23;605.50;;;38.20;;
52494;SDS011;38405;53.212;5.660;2022-12-10T04:47:48;616.20;;;35.60;;
52494;SDS011;38405;53.212;5.660;2022-12-10T04:50:14;580.42;;;34.33;;
52494;SDS011;38405;53.212;5.660;2022-12-10T04:52:39;581.28;;;34.78;;
52494;SDS011;38405;53.212;5.660;2022-12-10T04:55:05;559.08;;;33.08;;
52494;SDS011;38405;53.212;5.660;2022-12-10T04:57:31;560.45;;;33.10;;
52494;SDS011;38405;53.212;5.660;2022-12-10T04:59:57;587.65;;;34.25;;
52494;SDS011;38405;53.212;5.660;2022-12-10T05:02:22;592.28;;;33.30;;
52494;SDS011;38405;53.212;5.660;2022-12-10T05:04:48;571.05;;;31.48;;
52494;SDS011;38405;53.212;5.660;2022-12-10T05:07:14;611.33;;;33.63;;
52494;SDS011;38405;53.212;5.660;2022-12-10T05:09:40;543.58;;;31.55;;
52494;SDS011;38405;53.212;5.660;2022-12-10T05:12:05;503.23;;;30.42;;
52494;SDS011;38405;53.212;5.660;2022-12-10T05:14:31;529.00;;;32.35;;
52494;SDS011;38405;53.212;5.660;2022-12-10T05:16:57;580.95;;;31.38;;
52494;SDS011;38405;53.212;5.660;2022-12-10T05:19:23;582.78;;;32.53;;
52494;SDS011;38405;53.212;5.660;2022-12-10T05:21:51;544.17;;;31.00;;
52494;SDS011;38405;53.212;5.660;2022-12-10T05:24:35;609.60;;;33.47;;
52494;SDS011;38405;53.212;5.660;2022-12-10T05:27:01;521.75;;;29.83;;
52494;SDS011;38405;53.212;5.660;2022-12-10T05:29:27;438.70;;;27.60;;
52494;SDS011;38405;53.212;5.660;2022-12-10T05:31:53;496.98;;;29.73;;
52494;SDS011;38405;53.212;5.660;2022-12-10T05:34:19;623.03;;;32.92;;
52494;SDS011;38405;53.212;5.660;2022-12-10T05:36:44;506.08;;;29.35;;
52494;SDS011;38405;53.212;5.660;2022-12-10T05:39:10;516.53;;;31.85;;
52494;SDS011;38405;53.212;5.660;2022-12-10T05:41:37;424.67;;;27.05;;
52494;SDS011;38405;53.212;5.660;2022-12-10T05:44:04;507.20;;;33.65;;
52494;SDS011;38405;53.212;5.660;2022-12-10T05:46:31;435.70;;;27.60;;
52494;SDS011;38405;53.212;5.660;2022-12-10T05:48:59;459.77;;;27.63;;
52494;SDS011;38405;53.212;5.660;2022-12-10T05:51:27;450.67;;;27.95;;
52494;SDS011;38405;53.212;5.660;2022-12-10T05:53:55;471.25;;;29.85;;
52494;SDS011;38405;53.212;5.660;2022-12-10T05:56:22;329.30;;;23.08;;
52494;SDS011;38405;53.212;5.660;2022-12-10T05:58:51;376.52;;;24.98;;
52494;SDS011;38405;53.212;5.660;2022-12-10T06:01:23;464.70;;;26.40;;
52494;SDS011;38405;53.212;5.660;2022-12-10T06:03:51;397.05;;;24.63;;
52494;SDS011;38405;53.212;5.660;2022-12-10T06:06:20;492.85;;;27.65;;
52494;SDS011;38405;53.212;5.660;2022-12-10T06:08:47;513.03;;;27.88;;
52494;SDS011;38405;53.212;5.660;2022-12-10T06:11:13;469.42;;;28.35;;
52494;SDS011;38405;53.212;5.660;2022-12-10T06:13:39;570.90;;;30.52;;
52494;SDS011;38405;53.212;5.660;2022-12-10T06:16:05;444.30;;;28.92;;
52494;SDS011;38405;53.212;5.660;2022-12-10T06:18:32;444.40;;;29.35;;
52494;SDS011;38405;53.212;5.660;2022-12-10T06:20:58;456.02;;;28.75;;
52494;SDS011;38405;53.212;5.660;2022-12-10T06:23:27;420.55;;;27.52;;
52494;SDS011;38405;53.212;5.660;2022-12-10T06:25:52;482.55;;;28.13;;
52494;SDS011;38405;53.212;5.660;2022-12-10T06:28:18;374.15;;;24.77;;
52494;SDS011;38405;53.212;5.660;2022-12-10T06:30:44;496.33;;;30.08;;
52494;SDS011;38405;53.212;5.660;2022-12-10T06:33:09;450.73;;;28.92;;
52494;SDS011;38405;53.212;5.660;2022-12-10T06:35:36;389.17;;;25.60;;
52494;SDS011;38405;53.212;5.660;2022-12-10T06:38:02;423.70;;;27.88;;
52494;SDS011;38405;53.212;5.660;2022-12-10T06:40:28;437.65;;;28.73;;
52494;SDS011;38405;53.212;5.660;2022-12-10T06:42:53;459.95;;;30.50;;
52494;SDS011;38405;53.212;5.660;2022-12-10T06:45:19;424.10;;;27.10;;
52494;SDS011;38405;53.212;5.660;2022-12-10T06:47:45;438.27;;;28.20;;
52494;SDS011;38405;53.212;5.660;2022-12-10T06:50:10;457.40;;;28.58;;
52494;SDS011;38405;53.212;5.660;2022-12-10T06:52:36;453.00;;;27.52;;
52494;SDS011;38405;53.212;5.660;2022-12-10T06:55:02;417.65;;;27.90;;
52494;SDS011;38405;53.212;5.660;2022-12-10T06:57:28;467.95;;;30.00;;
52494;SDS011;38405;53.212;5.660;2022-12-10T06:59:53;365.40;;;26.25;;
52494;SDS011;38405;53.212;5.660;2022-12-10T07:02:19;354.88;;;26.77;;
52494;SDS011;38405;53.212;5.660;2022-12-10T07:04:45;413.30;;;30.60;;
52494;SDS011;38405;53.212;5.660;2022-12-10T07:07:10;428.23;;;28.13;;
52494;SDS011;38405;53.212;5.660;2022-12-10T07:09:36;448.27;;;27.27;;
52494;SDS011;38405;53.212;5.660;2022-12-10T07:12:02;500.73;;;31.73;;
52494;SDS011;38405;53.212;5.660;2022-12-10T07:14:28;463.33;;;29.83;;
52494;SDS011;38405;53.212;5.660;2022-12-10T07:16:54;470.13;;;29.63;;
52494;SDS011;38405;53.212;5.660;2022-12-10T07:19:20;399.45;;;28.30;;
52494;SDS011;38405;53.212;5.660;2022-12-10T07:21:45;438.23;;;26.50;;
52494;SDS011;38405;53.212;5.660;2022-12-10T07:24:13;391.55;;;26.77;;
52494;SDS011;38405;53.212;5.660;2022-12-10T07:26:41;363.73;;;25.63;;
52494;SDS011;38405;53.212;5.660;2022-12-10T07:29:09;491.85;;;30.25;;
52494;SDS011;38405;53.212;5.660;2022-12-10T07:31:38;425.73;;;26.95;;
52494;SDS011;38405;53.212;5.660;2022-12-10T07:34:04;453.90;;;28.05;;
52494;SDS011;38405;53.212;5.660;2022-12-10T07:36:30;315.25;;;24.58;;
52494;SDS011;38405;53.212;5.660;2022-12-10T07:38:56;455.33;;;28.98;;
52494;SDS011;38405;53.212;5.660;2022-12-10T07:41:22;493.98;;;30.52;;
52494;SDS011;38405;53.212;5.660;2022-12-10T07:43:48;516.92;;;30.60;;
52494;SDS011;38405;53.212;5.660;2022-12-10T07:46:21;393.80;;;26.60;;
52494;SDS011;38405;53.212;5.660;2022-12-10T07:48:48;441.27;;;29.50;;
52494;SDS011;38405;53.212;5.660;2022-12-10T07:51:15;461.50;;;30.17;;
52494;SDS011;38405;53.212;5.660;2022-12-10T07:53:42;505.20;;;30.67;;
52494;SDS011;38405;53.212;5.660;2022-12-10T07:56:09;446.13;;;28.20;;
52494;SDS011;38405;53.212;5.660;2022-12-10T07:58:35;473.00;;;28.67;;
52494;SDS011;38405;53.212;5.660;2022-12-10T08:01:07;496.08;;;29.88;;
52494;SDS011;38405;53.212;5.660;2022-12-10T08:03:34;427.05;;;26.80;;
52494;SDS011;38405;53.212;5.660;2022-12-10T08:06:03;527.40;;;33.55;;
52494;SDS011;38405;53.212;5.660;2022-12-10T08:08:32;539.45;;;31.33;;
52494;SDS011;38405;53.212;5.660;2022-12-10T08:11:02;495.55;;;30.20;;
52494;SDS011;38405;53.212;5.660;2022-12-10T08:13:29;532.70;;;31.10;;
52494;SDS011;38405;53.212;5.660;2022-12-10T08:16:02;528.58;;;30.92;;
52494;SDS011;38405;53.212;5.660;2022-12-10T08:18:31;474.27;;;27.75;;
52494;SDS011;38405;53.212;5.660;2022-12-10T08:20:58;516.90;;;30.40;;
52494;SDS011;38405;53.212;5.660;2022-12-10T08:23:27;588.75;;;31.48;;
52494;SDS011;38405;53.212;5.660;2022-12-10T08:25:53;558.47;;;32.47;;
52494;SDS011;38405;53.212;5.660;2022-12-10T08:28:18;635.13;;;33.30;;
52494;SDS011;38405;53.212;5.660;2022-12-10T08:30:47;548.08;;;32.25;;
52494;SDS011;38405;53.212;5.660;2022-12-10T08:33:13;525.35;;;29.70;;
52494;SDS011;38405;53.212;5.660;2022-12-10T08:35:40;457.80;;;28.08;;
52494;SDS011;38405;53.212;5.660;2022-12-10T08:38:05;547.97;;;31.77;;
52494;SDS011;38405;53.212;5.660;2022-12-10T08:40:31;506.95;;;29.45;;
52494;SDS011;38405;53.212;5.660;2022-12-10T08:42:57;442.63;;;29.25;;
52494;SDS011;38405;53.212;5.660;2022-12-10T08:45:22;601.47;;;33.25;;
52494;SDS011;38405;53.212;5.660;2022-12-10T08:47:48;528.63;;;31.20;;
52494;SDS011;38405;53.212;5.660;2022-12-10T08:50:13;574.70;;;30.85;;
52494;SDS011;38405;53.212;5.660;2022-12-10T08:52:39;596.70;;;34.83;;
52494;SDS011;38405;53.212;5.660;2022-12-10T08:55:05;612.00;;;33.83;;
52494;SDS011;38405;53.212;5.660;2022-12-10T08:57:31;522.75;;;29.95;;
52494;SDS011;38405;53.212;5.660;2022-12-10T08:59:56;600.75;;;34.08;;
52494;SDS011;38405;53.212;5.660;2022-12-10T09:02:22;571.10;;;34.10;;
52494;SDS011;38405;53.212;5.660;2022-12-10T09:04:49;563.05;;;33.58;;
52494;SDS011;38405;53.212;5.660;2022-12-10T09:07:15;569.38;;;34.47;;
52494;SDS011;38405;53.212;5.660;2022-12-10T09:09:41;610.80;;;36.88;;
52494;SDS011;38405;53.212;5.660;2022-12-10T09:12:06;616.92;;;35.47;;
52494;SDS011;38405;53.212;5.660;2022-12-10T09:14:32;566.10;;;35.00;;
52494;SDS011;38405;53.212;5.660;2022-12-10T09:16:58;615.30;;;35.08;;
52494;SDS011;38405;53.212;5.660;2022-12-10T09:19:23;505.30;;;32.40;;
52494;SDS011;38405;53.212;5.660;2022-12-10T09:21:49;550.80;;;35.22;;
52494;SDS011;38405;53.212;5.660;2022-12-10T09:24:15;471.65;;;31.50;;
52494;SDS011;38405;53.212;5.660;2022-12-10T09:26:40;464.67;;;31.95;;
52494;SDS011;38405;53.212;5.660;2022-12-10T09:29:06;530.35;;;33.38;;
52494;SDS011;38405;53.212;5.660;2022-12-10T09:31:31;454.55;;;33.05;;
52494;SDS011;38405;53.212;5.660;2022-12-10T09:33:57;453.50;;;30.10;;
52494;SDS011;38405;53.212;5.660;2022-12-10T09:36:24;558.40;;;34.92;;
52494;SDS011;38405;53.212;5.660;2022-12-10T09:38:50;340.30;;;29.35;;
52494;SDS011;38405;53.212;5.660;2022-12-10T09:47:24;499.95;;;33.30;;
52494;SDS011;38405;53.212;5.660;2022-12-10T09:52:42;441.98;;;33.15;;
52494;SDS011;38405;53.212;5.660;2022-12-10T09:55:14;482.55;;;31.67;;
52494;SDS011;38405;53.212;5.660;2022-12-10T09:57:51;380.58;;;31.13;;
52494;SDS011;38405;53.212;5.660;2022-12-10T10:00:37;367.92;;;30.17;;
52494;SDS011;38405;53.212;5.660;2022-12-10T10:03:04;410.67;;;31.30;;
52494;SDS011;38405;53.212;5.660;2022-12-10T10:05:35;416.63;;;31.25;;
52494;SDS011;38405;53.212;5.660;2022-12-10T10:08:27;502.38;;;35.78;;
52494;SDS011;38405;53.212;5.660;2022-12-10T10:11:02;524.63;;;34.15;;
52494;SDS011;38405;53.212;5.660;2022-12-10T10:13:42;374.70;;;30.58;;
52494;SDS011;38405;53.212;5.660;2022-12-10T10:18:59;347.08;;;29.83;;
52494;SDS011;38405;53.212;5.660;2022-12-10T10:21:39;383.42;;;29.80;;
52494;SDS011;38405;53.212;5.660;2022-12-10T10:24:07;327.02;;;31.10;;
52494;SDS011;38405;53.212;5.660;2022-12-10T10:26:41;218.43;;;25.70;;
52494;SDS011;38405;53.212;5.660;2022-12-10T10:29:08;201.55;;;27.25;;
52494;SDS011;38405;53.212;5.660;2022-12-10T10:31:38;338.55;;;28.98;;
52494;SDS011;38405;53.212;5.660;2022-12-10T10:34:17;182.68;;;24.45;;
52494;SDS011;38405;53.212;5.660;2022-12-10T10:36:43;135.73;;;25.00;;
52494;SDS011;38405;53.212;5.660;2022-12-10T10:39:11;156.93;;;26.05;;
52494;SDS011;38405;53.212;5.660;2022-12-10T10:41:47;163.80;;;27.38;;
52494;SDS011;38405;53.212;5.660;2022-12-10T10:44:20;146.57;;;27.17;;
52494;SDS011;38405;53.212;5.660;2022-12-10T10:46:49;164.70;;;26.30;;
52494;SDS011;38405;53.212;5.660;2022-12-10T10:49:22;167.55;;;26.92;;
52494;SDS011;38405;53.212;5.660;2022-12-10T10:51:51;158.57;;;24.83;;
52494;SDS011;38405;53.212;5.660;2022-12-10T10:57:12;208.95;;;26.00;;
52494;SDS011;38405;53.212;5.660;2022-12-10T10:59:46;208.15;;;27.38;;
52494;SDS011;38405;53.212;5.660;2022-12-10T11:05:07;234.82;;;26.20;;
52494;SDS011;38405;53.212;5.660;2022-12-10T11:08:00;195.48;;;26.67;;
52494;SDS011;38405;53.212;5.660;2022-12-10T11:10:32;139.80;;;24.60;;
52494;SDS011;38405;53.212;5.660;2022-12-10T11:12:59;144.18;;;25.90;;
52494;SDS011;38405;53.212;5.660;2022-12-10T11:15:37;157.07;;;26.23;;
52494;SDS011;38405;53.212;5.660;2022-12-10T11:18:22;138.27;;;25.45;;
52494;SDS011;38405;53.212;5.660;2022-12-10T11:20:57;125.32;;;24.42;;
52494;SDS011;38405;53.212;5.660;2022-12-10T11:23:28;127.35;;;27.08;;
52494;SDS011;38405;53.212;5.660;2022-12-10T11:25:58;116.78;;;25.88;;
52494;SDS011;38405;53.212;5.660;2022-12-10T11:28:56;127.55;;;26.00;;
52494;SDS011;38405;53.212;5.660;2022-12-10T11:34:32;131.38;;;24.67;;
52494;SDS011;38405;53.212;5.660;2022-12-10T11:37:17;133.90;;;26.70;;
52494;SDS011;38405;53.212;5.660;2022-12-10T11:42:43;98.78;;;24.48;;
52494;SDS011;38405;53.212;5.660;2022-12-10T11:45:23;100.18;;;25.77;;
52494;SDS011;38405;53.212;5.660;2022-12-10T11:50:42;109.47;;;23.80;;
52494;SDS011;38405;53.212;5.660;2022-12-10T11:56:26;113.55;;;26.33;;
52494;SDS011;38405;53.212;5.660;2022-12-10T12:04:38;110.35;;;25.40;;
52494;SDS011;38405;53.212;5.660;2022-12-10T12:07:30;83.53;;;24.27;;
52494;SDS011;38405;53.212;5.660;2022-12-10T12:13:20;108.30;;;25.42;;
52494;SDS011;38405;53.212;5.660;2022-12-10T12:16:34;88.32;;;24.17;;
52494;SDS011;38405;53.212;5.660;2022-12-10T12:21:12;107.28;;;25.77;;
52494;SDS011;38405;53.212;5.660;2022-12-10T12:23:51;93.78;;;25.77;;
52494;SDS011;38405;53.212;5.660;2022-12-10T12:26:29;92.15;;;25.77;;
52494;SDS011;38405;53.212;5.660;2022-12-10T12:29:12;96.22;;;25.70;;
52494;SDS011;38405;53.212;5.660;2022-12-10T12:31:52;102.75;;;25.30;;
52494;SDS011;38405;53.212;5.660;2022-12-10T12:34:33;104.85;;;26.60;;
52494;SDS011;38405;53.212;5.660;2022-12-10T12:37:17;92.32;;;25.15;;
52494;SDS011;38405;53.212;5.660;2022-12-10T12:39:51;90.35;;;25.50;;
52494;SDS011;38405;53.212;5.660;2022-12-10T12:42:32;94.55;;;26.05;;
52494;SDS011;38405;53.212;5.660;2022-12-10T12:48:04;95.72;;;26.42;;
52494;SDS011;38405;53.212;5.660;2022-12-10T12:53:37;77.60;;;25.75;;
52494;SDS011;38405;53.212;5.660;2022-12-10T12:58:46;68.82;;;23.52;;
52494;SDS011;38405;53.212;5.660;2022-12-10T13:04:06;70.22;;;22.60;;
52494;SDS011;38405;53.212;5.660;2022-12-10T13:06:34;73.68;;;24.17;;
52494;SDS011;38405;53.212;5.660;2022-12-10T13:14:31;79.55;;;23.33;;
52494;SDS011;38405;53.212;5.660;2022-12-10T13:20:04;87.78;;;23.02;;
52494;SDS011;38405;53.212;5.660;2022-12-10T13:23:33;77.28;;;22.25;;
52494;SDS011;38405;53.212;5.660;2022-12-10T13:33:51;82.43;;;24.40;;
52494;SDS011;38405;53.212;5.660;2022-12-10T13:36:23;79.78;;;22.33;;
52494;SDS011;38405;53.212;5.660;2022-12-10T13:41:34;84.32;;;24.08;;
52494;SDS011;38405;53.212;5.660;2022-12-10T13:49:30;89.00;;;23.00;;
52494;SDS011;38405;53.212;5.660;2022-12-10T13:52:01;103.57;;;23.80;;
52494;SDS011;38405;53.212;5.660;2022-12-10T13:57:30;101.35;;;25.63;;
52494;SDS011;38405;53.212;5.660;2022-12-10T14:00:16;94.32;;;24.02;;
52494;SDS011;38405;53.212;5.660;2022-12-10T14:05:42;103.60;;;25.00;;
52494;SDS011;38405;53.212;5.660;2022-12-10T14:08:20;88.38;;;23.15;;
52494;SDS011;38405;53.212;5.660;2022-12-10T14:10:53;86.93;;;23.08;;
52494;SDS011;38405;53.212;5.660;2022-12-10T14:13:21;91.45;;;23.95;;
52494;SDS011;38405;53.212;5.660;2022-12-10T14:16:00;75.95;;;23.15;;
52494;SDS011;38405;53.212;5.660;2022-12-10T14:18:27;77.85;;;22.85;;
52494;SDS011;38405;53.212;5.660;2022-12-10T14:20:55;98.10;;;23.35;;
52494;SDS011;38405;53.212;5.660;2022-12-10T14:25:58;85.97;;;22.52;;
52494;SDS011;38405;53.212;5.660;2022-12-10T14:28:29;83.32;;;23.25;;
52494;SDS011;38405;53.212;5.660;2022-12-10T14:30:55;73.55;;;22.65;;
52494;SDS011;38405;53.212;5.660;2022-12-10T14:33:21;87.70;;;23.02;;
52494;SDS011;38405;53.212;5.660;2022-12-10T14:35:49;89.72;;;23.77;;
52494;SDS011;38405;53.212;5.660;2022-12-10T14:38:17;100.78;;;25.42;;
52494;SDS011;38405;53.212;5.660;2022-12-10T14:41:04;83.88;;;22.75;;
52494;SDS011;38405;53.212;5.660;2022-12-10T14:43:38;68.10;;;20.02;;
52494;SDS011;38405;53.212;5.660;2022-12-10T14:46:06;62.45;;;19.55;;
52494;SDS011;38405;53.212;5.660;2022-12-10T14:48:42;92.43;;;22.88;;
52494;SDS011;38405;53.212;5.660;2022-12-10T14:51:41;111.22;;;24.63;;
52494;SDS011;38405;53.212;5.660;2022-12-10T14:54:02;102.07;;;22.23;;
52494;SDS011;38405;53.212;5.660;2022-12-10T14:56:32;91.47;;;22.23;;
52494;SDS011;38405;53.212;5.660;2022-12-10T15:01:37;104.22;;;22.65;;
52494;SDS011;38405;53.212;5.660;2022-12-10T15:04:06;85.50;;;20.83;;
52494;SDS011;38405;53.212;5.660;2022-12-10T15:06:39;108.72;;;20.13;;
52494;SDS011;38405;53.212;5.660;2022-12-10T15:09:05;83.95;;;20.20;;
52494;SDS011;38405;53.212;5.660;2022-12-10T15:11:40;88.28;;;20.08;;
52494;SDS011;38405;53.212;5.660;2022-12-10T15:14:06;108.50;;;21.45;;
52494;SDS011;38405;53.212;5.660;2022-12-10T15:31:09;117.75;;;21.08;;
52494;SDS011;38405;53.212;5.660;2022-12-10T15:36:11;113.30;;;18.90;;
52494;SDS011;38405;53.212;5.660;2022-12-10T15:38:52;105.82;;;20.85;;
52494;SDS011;38405;53.212;5.660;2022-12-10T15:41:31;111.07;;;21.73;;
52494;SDS011;38405;53.212;5.660;2022-12-10T15:49:38;96.75;;;21.98;;
52494;SDS011;38405;53.212;5.660;2022-12-10T15:52:04;100.75;;;21.83;;
52494;SDS011;38405;53.212;5.660;2022-12-10T15:54:37;88.70;;;21.42;;
52494;SDS011;38405;53.212;5.660;2022-12-10T15:57:17;77.63;;;20.90;;
52494;SDS011;38405;53.212;5.660;2022-12-10T15:59:45;79.95;;;20.45;;
52494;SDS011;38405;53.212;5.660;2022-12-10T16:05:36;97.63;;;21.23;;
52494;SDS011;38405;53.212;5.660;2022-12-10T16:08:48;99.28;;;22.45;;
52494;SDS011;38405;53.212;5.660;2022-12-10T16:10:52;98.93;;;22.40;;
52494;SDS011;38405;53.212;5.660;2022-12-10T16:15:49;141.75;;;23.55;;
52494;SDS011;38405;53.212;5.660;2022-12-10T16:18:32;98.22;;;20.55;;
52494;SDS011;38405;53.212;5.660;2022-12-10T16:21:00;125.07;;;23.23;;
52494;SDS011;38405;53.212;5.660;2022-12-10T16:23:26;129.75;;;24.45;;
52494;SDS011;38405;53.212;5.660;2022-12-10T16:25:52;112.57;;;23.90;;
52494;SDS011;38405;53.212;5.660;2022-12-10T16:28:19;130.55;;;25.33;;
52494;SDS011;38405;53.212;5.660;2022-12-10T16:30:46;108.32;;;25.15;;
52494;SDS011;38405;53.212;5.660;2022-12-10T16:33:15;119.25;;;25.58;;
52494;SDS011;38405;53.212;5.660;2022-12-10T16:35:45;91.32;;;23.88;;
52494;SDS011;38405;53.212;5.660;2022-12-10T16:38:11;127.07;;;27.55;;
52494;SDS011;38405;53.212;5.660;2022-12-10T16:40:37;148.68;;;27.02;;